Time;durP1;ratioP1;P1;durP2;ratioP2;P2;SDS_P1;SDS_P2;PMS_P1;PMS_P2;Temp;Humidity;BMP_temperature;BMP_pressure;BME280_temperature;BME280_humidity;BME280_pressure;Samples;Min_cycle;Max_cycle;Signal;HPM_P1;HPM_P2
2024/01/14 00:01:53;;;;;;;;;79.33;54.33;;;;;-0.15;70.87;101633.44;4978097;28;45467;-62
2024/01/14 00:04:18;;;;;;;;;84.67;58.33;;;;;-0.09;71.15;101622.66;4977402;28;46758;-63
2024/01/14 00:06:45;;;;;;;;;78.33;54.00;;;;;-0.04;71.22;101621.22;4978252;28;45527;-63
2024/01/14 00:09:11;;;;;;;;;78.67;56.33;;;;;-0.13;71.01;101613.84;4979165;28;46715;-63
2024/01/14 00:11:38;;;;;;;;;75.00;54.00;;;;;0.00;70.75;101618.03;4978820;28;45501;-64
2024/01/14 00:14:04;;;;;;;;;81.67;57.33;;;;;-0.01;70.83;101606.81;4977452;28;45372;-64
2024/01/14 00:16:34;;;;;;;;;81.00;57.67;;;;;-0.16;71.67;101615.34;4978366;28;45345;-63
2024/01/14 00:19:03;;;;;;;;;78.33;54.67;;;;;-0.33;71.64;101606.59;4979677;28;45313;-62
2024/01/14 00:21:29;;;;;;;;;74.33;51.00;;;;;-0.34;71.74;101598.00;4978891;28;45508;-64
2024/01/14 00:23:55;;;;;;;;;76.33;51.67;;;;;-0.32;71.93;101592.94;4978513;28;45539;-64
2024/01/14 00:26:24;;;;;;;;;78.67;55.67;;;;;-0.20;71.43;101595.34;4978877;28;45294;-65
2024/01/14 00:28:52;;;;;;;;;79.67;58.67;;;;;-0.28;71.77;101569.16;4979702;28;45351;-66
2024/01/14 00:31:17;;;;;;;;;71.67;51.67;;;;;-0.25;71.55;101570.22;4979943;28;45343;-65
2024/01/14 00:33:43;;;;;;;;;72.00;52.33;;;;;-0.12;71.18;101571.84;4978463;28;46138;-64
2024/01/14 00:36:09;;;;;;;;;66.00;50.00;;;;;-0.20;70.65;101560.19;4978351;28;45390;-63
2024/01/14 00:38:34;;;;;;;;;72.33;53.33;;;;;-0.21;70.82;101566.16;4976901;28;45385;-63
2024/01/14 00:41:00;;;;;;;;;76.33;51.00;;;;;-0.25;71.24;101561.63;4978340;28;45350;-64
2024/01/14 00:43:29;;;;;;;;;74.00;51.00;;;;;-0.34;72.05;101554.22;4978481;28;45541;-64
2024/01/14 00:45:56;;;;;;;;;73.33;54.00;;;;;-0.34;71.64;101556.81;4978072;28;45407;-62
2024/01/14 00:48:22;;;;;;;;;73.33;51.67;;;;;-0.28;71.57;101559.75;4978620;28;45458;-65
2024/01/14 00:50:48;;;;;;;;;70.67;50.67;;;;;-0.24;70.73;101545.34;4993809;28;45758;-66
2024/01/14 00:53:13;;;;;;;;;66.33;45.33;;;;;-0.27;71.48;101543.50;4979532;28;45894;-64
2024/01/14 00:55:39;;;;;;;;;65.00;49.00;;;;;-0.27;71.09;101527.16;4978753;28;45582;-65
2024/01/14 00:58:05;;;;;;;;;68.67;48.67;;;;;-0.32;71.83;101520.88;4978099;28;45340;-65
2024/01/14 01:00:31;;;;;;;;;71.00;50.67;;;;;-0.28;71.11;101520.25;4978199;28;45335;-68
2024/01/14 01:02:56;;;;;;;;;66.33;48.00;;;;;-0.22;70.93;101525.75;4993175;28;45421;-65
2024/01/14 01:05:22;;;;;;;;;70.00;49.00;;;;;-0.32;70.58;101508.00;4977803;28;45435;-65
2024/01/14 01:07:47;;;;;;;;;70.67;48.33;;;;;-0.22;70.36;101524.06;4978654;28;45354;-66
2024/01/14 01:10:13;;;;;;;;;68.00;45.67;;;;;-0.18;70.55;101514.84;4975726;28;45685;-64
2024/01/14 01:12:39;;;;;;;;;66.67;47.00;;;;;-0.23;71.14;101509.41;4992529;28;46780;-63
2024/01/14 01:15:05;;;;;;;;;65.33;46.67;;;;;-0.12;70.77;101520.34;4977459;28;45427;-64
2024/01/14 01:17:32;;;;;;;;;64.33;43.33;;;;;-0.08;70.38;101523.97;4977823;28;45248;-64
2024/01/14 01:20:02;;;;;;;;;70.67;46.00;;;;;-0.14;70.90;101521.94;4976420;28;45319;-63
2024/01/14 01:22:34;;;;;;;;;65.67;48.00;;;;;-0.17;70.33;101529.47;4976060;28;45651;-63
2024/01/14 01:25:05;;;;;;;;;65.00;47.67;;;;;-0.22;70.06;101538.63;4975811;28;45414;-64
2024/01/14 01:27:32;;;;;;;;;57.67;44.33;;;;;-0.30;71.02;101539.88;4975135;28;45380;-64
2024/01/14 01:29:58;;;;;;;;;73.67;49.33;;;;;-0.43;71.43;101507.34;4977958;28;45574;-64
2024/01/14 01:32:23;;;;;;;;;56.67;42.00;;;;;-0.35;71.15;101533.56;4992517;28;47543;-63
2024/01/14 01:34:49;;;;;;;;;64.67;46.33;;;;;-0.52;70.83;101494.84;4978302;28;45495;-63
2024/01/14 01:37:17;;;;;;;;;66.67;46.33;;;;;-0.57;71.66;101490.22;4976038;28;45283;-66
2024/01/14 01:39:43;;;;;;;;;64.00;47.00;;;;;-0.41;71.01;101515.19;4977401;28;45260;-64
2024/01/14 01:42:19;;;;;;;;;54.33;40.33;;;;;-0.36;70.79;101521.47;4977321;28;45758;-64
2024/01/14 01:44:45;;;;;;;;;59.67;45.33;;;;;-0.39;70.63;101511.00;4974710;28;45519;-66
2024/01/14 01:47:12;;;;;;;;;59.67;45.00;;;;;-0.56;71.21;101503.19;4976937;28;45474;-65
2024/01/14 01:49:39;;;;;;;;;61.00;46.00;;;;;-0.46;70.93;101509.75;4977451;28;45418;-64
2024/01/14 01:52:06;;;;;;;;;70.67;50.33;;;;;-0.48;70.47;101512.22;4976807;28;46340;-66
2024/01/14 01:54:33;;;;;;;;;64.00;43.33;;;;;-0.56;71.11;101495.47;4976789;28;45380;-64
2024/01/14 01:57:00;;;;;;;;;58.33;42.67;;;;;-0.69;70.38;101496.44;4977224;28;45430;-64
2024/01/14 01:59:26;;;;;;;;;62.67;44.00;;;;;-0.72;71.12;101500.50;4976087;28;45589;-64
2024/01/14 02:01:54;;;;;;;;;57.33;44.00;;;;;-0.81;72.00;101493.09;4976908;28;45550;-64
2024/01/14 02:04:21;;;;;;;;;60.33;44.00;;;;;-0.90;71.77;101480.59;4977942;28;45636;-64
2024/01/14 02:06:47;;;;;;;;;55.00;44.33;;;;;-0.80;71.43;101479.47;4972199;28;45505;-65
2024/01/14 02:09:13;;;;;;;;;59.00;41.33;;;;;-0.69;71.11;101487.81;4975446;28;45409;-64
2024/01/14 02:11:39;;;;;;;;;64.00;43.33;;;;;-0.66;71.40;101482.88;4974851;28;46367;-65
2024/01/14 02:14:05;;;;;;;;;56.00;39.67;;;;;-0.49;71.12;101494.16;4976006;28;45590;-64
2024/01/14 02:16:31;;;;;;;;;48.00;36.33;;;;;-0.48;71.30;101491.63;4977019;28;45560;-64
2024/01/14 02:18:57;;;;;;;;;49.67;38.00;;;;;-0.40;70.76;101480.91;4977963;28;45474;-65
2024/01/14 02:21:25;;;;;;;;;52.33;38.00;;;;;-0.32;71.18;101470.25;4977026;28;45729;-65
2024/01/14 02:24:04;;;;;;;;;55.33;41.67;;;;;-0.35;69.98;101459.81;4977069;28;45543;-65
2024/01/14 02:26:30;;;;;;;;;53.67;40.00;;;;;-0.33;69.79;101471.09;4975668;28;45405;-65
2024/01/14 02:28:56;;;;;;;;;49.67;37.67;;;;;-0.34;69.66;101468.41;4976894;28;45499;-64
2024/01/14 02:31:23;;;;;;;;;46.67;36.67;;;;;-0.30;69.92;101472.94;4974924;28;47572;-63
2024/01/14 02:33:49;;;;;;;;;55.33;38.33;;;;;-0.36;69.22;101462.28;4976772;28;45490;-64
2024/01/14 02:36:15;;;;;;;;;56.33;39.67;;;;;-0.34;69.09;101464.13;4977066;28;45505;-64
2024/01/14 02:38:40;;;;;;;;;52.67;37.00;;;;;-0.27;69.48;101465.38;4975094;28;45593;-65
2024/01/14 02:41:06;;;;;;;;;54.33;38.00;;;;;-0.22;69.66;101448.50;4975244;28;46258;-64
2024/01/14 02:43:31;;;;;;;;;51.33;39.33;;;;;-0.07;68.76;101451.97;4976045;28;45472;-64
2024/01/14 02:45:57;;;;;;;;;49.67;37.00;;;;;0.02;68.77;101448.13;4976999;28;45395;-65
2024/01/14 02:48:22;;;;;;;;;52.00;37.00;;;;;0.04;68.90;101434.53;4978112;28;45541;-63
2024/01/14 02:50:48;;;;;;;;;56.33;38.00;;;;;-0.03;68.31;101412.69;4976426;28;46734;-65
2024/01/14 02:53:13;;;;;;;;;51.67;41.33;;;;;0.16;68.55;101426.59;4977968;28;45713;-65
2024/01/14 02:55:39;;;;;;;;;53.00;41.00;;;;;0.08;68.30;101410.72;4975647;28;45460;-65
2024/01/14 02:58:04;;;;;;;;;59.67;41.67;;;;;0.07;67.67;101398.66;4976516;28;45454;-65
2024/01/14 03:00:30;;;;;;;;;53.67;39.00;;;;;0.22;67.50;101424.34;4976075;28;46370;-64
2024/01/14 03:02:56;;;;;;;;;53.33;36.33;;;;;0.24;67.73;101422.75;4976221;28;45478;-64
2024/01/14 03:05:21;;;;;;;;;62.67;45.00;;;;;0.22;67.86;101410.59;4976328;28;46001;-65
2024/01/14 03:07:47;;;;;;;;;63.67;45.00;;;;;0.11;67.89;101404.84;4975862;28;45467;-63
2024/01/14 03:10:12;;;;;;;;;61.00;41.33;;;;;0.01;67.56;101408.59;4977188;28;46008;-65
2024/01/14 03:12:38;;;;;;;;;62.33;43.00;;;;;-0.08;68.17;101411.53;4977320;28;45638;-64
2024/01/14 03:15:04;;;;;;;;;64.67;45.67;;;;;-0.23;68.05;101401.28;4976293;28;45415;-65
2024/01/14 03:17:30;;;;;;;;;54.33;42.00;;;;;-0.25;68.71;101413.19;4974697;28;47006;-63
2024/01/14 03:19:55;;;;;;;;;57.67;42.00;;;;;-0.38;69.09;101412.41;4975771;28;45446;-64
2024/01/14 03:22:21;;;;;;;;;67.67;46.67;;;;;-0.45;69.74;101414.63;4974777;28;45393;-66
2024/01/14 03:24:47;;;;;;;;;62.00;47.33;;;;;-0.52;69.38;101409.94;4974959;28;45547;-66
2024/01/14 03:27:12;;;;;;;;;61.00;43.67;;;;;-0.43;69.81;101418.19;4977744;28;45666;-65
2024/01/14 03:29:38;;;;;;;;;61.67;43.00;;;;;-0.55;69.80;101404.59;4975716;28;45899;-65
2024/01/14 03:32:03;;;;;;;;;61.67;44.00;;;;;-0.60;70.54;101397.41;4975229;28;45475;-65
2024/01/14 03:34:30;;;;;;;;;57.67;43.33;;;;;-0.59;69.70;101401.75;4978864;28;45487;-64
2024/01/14 03:36:56;;;;;;;;;63.67;44.00;;;;;-0.54;70.46;101401.25;4980765;28;45401;-63
2024/01/14 03:39:21;;;;;;;;;61.67;45.00;;;;;-0.55;70.59;101411.44;4980037;28;46132;-65
2024/01/14 03:41:47;;;;;;;;;61.00;46.00;;;;;-0.67;70.26;101403.88;4993788;28;45454;-64
2024/01/14 03:44:12;;;;;;;;;60.67;45.33;;;;;-0.65;70.55;101403.19;4978178;28;45364;-65
2024/01/14 03:46:38;;;;;;;;;61.33;46.00;;;;;-0.65;71.08;101404.88;4980875;28;45625;-64
2024/01/14 03:49:03;;;;;;;;;64.67;45.33;;;;;-0.74;70.18;101388.91;4979334;28;46271;-65
2024/01/14 03:51:29;;;;;;;;;63.00;47.00;;;;;-0.80;71.07;101378.28;4977330;28;45518;-66
2024/01/14 03:53:54;;;;;;;;;64.33;45.33;;;;;-0.72;71.05;101382.16;4978831;28;45606;-65
2024/01/14 03:56:20;;;;;;;;;66.67;45.00;;;;;-0.76;70.37;101381.13;4978953;28;45431;-64
2024/01/14 03:58:45;;;;;;;;;60.00;42.33;;;;;-1.00;70.93;101333.38;4977343;28;45910;-65
2024/01/14 04:01:16;;;;;;;;;66.33;45.67;;;;;-0.72;70.67;101374.44;4978026;28;45474;-64
2024/01/14 04:03:43;;;;;;;;;63.67;45.67;;;;;-0.76;71.12;101367.34;4978214;28;45387;-67
2024/01/14 04:06:09;;;;;;;;;65.00;47.33;;;;;-0.86;70.86;101348.81;4978534;28;45552;-64
2024/01/14 04:08:34;;;;;;;;;64.00;42.67;;;;;-0.77;70.61;101358.75;4993993;28;46751;-65
2024/01/14 04:11:00;;;;;;;;;61.33;44.00;;;;;-0.74;70.68;101353.75;4979815;28;45443;-66
2024/01/14 04:13:25;;;;;;;;;67.33;46.67;;;;;-0.77;71.15;101347.56;4977638;28;45436;-65
2024/01/14 04:15:51;;;;;;;;;63.67;45.33;;;;;-0.69;70.41;101336.03;4979863;28;45542;-66
2024/01/14 04:18:17;;;;;;;;;64.67;45.00;;;;;-0.66;70.67;101326.81;4979096;28;45429;-65
2024/01/14 04:20:42;;;;;;;;;66.00;49.00;;;;;-0.57;69.84;101330.69;4978418;28;45212;-64
2024/01/14 04:23:08;;;;;;;;;64.33;46.67;;;;;-0.66;70.34;101334.53;4979020;28;45413;-65
2024/01/14 04:25:33;;;;;;;;;72.67;47.67;;;;;-0.73;70.27;101340.13;4980245;28;45439;-66
2024/01/14 04:27:59;;;;;;;;;72.67;49.33;;;;;-0.75;70.50;101330.56;4979907;28;46608;-63
2024/01/14 04:30:24;;;;;;;;;68.00;47.67;;;;;-0.86;71.51;101332.50;4978631;28;45499;-64
2024/01/14 04:32:50;;;;;;;;;64.67;49.33;;;;;-0.91;70.92;101324.50;4980394;28;45381;-65
2024/01/14 04:35:15;;;;;;;;;67.67;48.67;;;;;-0.97;71.28;101328.41;4980081;28;45413;-64
2024/01/14 04:37:41;;;;;;;;;67.00;46.33;;;;;-1.05;71.75;101316.81;4979649;28;45339;-64
2024/01/14 04:40:07;;;;;;;;;67.67;47.33;;;;;-0.98;71.11;101324.06;4978164;28;45498;-64
2024/01/14 04:42:32;;;;;;;;;70.00;47.33;;;;;-1.02;70.77;101319.53;4978408;28;45663;-65
2024/01/14 04:44:58;;;;;;;;;68.33;49.33;;;;;-0.98;71.60;101316.34;4977861;28;45451;-65
2024/01/14 04:47:23;;;;;;;;;63.00;48.67;;;;;-1.01;71.34;101319.66;4978093;28;46495;-65
2024/01/14 04:49:49;;;;;;;;;73.00;49.67;;;;;-1.09;71.17;101315.75;4976493;28;45550;-65
2024/01/14 04:52:14;;;;;;;;;74.33;49.33;;;;;-1.00;71.23;101328.22;4978378;28;45348;-65
2024/01/14 04:54:40;;;;;;;;;66.67;50.00;;;;;-1.04;71.25;101316.00;4978369;28;45454;-65
2024/01/14 04:57:05;;;;;;;;;59.00;45.00;;;;;-1.35;71.57;101268.84;4976891;28;46192;-64
2024/01/14 04:59:31;;;;;;;;;68.00;47.33;;;;;-1.10;71.56;101322.56;4977856;28;45359;-65
2024/01/14 05:01:57;;;;;;;;;67.00;50.00;;;;;-1.35;71.93;101275.69;4960404;28;45487;-64
2024/01/14 05:04:22;;;;;;;;;70.00;48.67;;;;;-1.01;71.86;101323.91;4977950;28;45410;-64
2024/01/14 05:06:48;;;;;;;;;70.33;51.00;;;;;-1.05;71.97;101309.09;4977979;28;45844;-64
2024/01/14 05:09:13;;;;;;;;;67.33;48.33;;;;;-1.12;71.36;101289.84;4976563;28;45418;-65
2024/01/14 05:11:39;;;;;;;;;71.33;48.67;;;;;-0.96;71.60;101318.22;4978501;28;45335;-64
2024/01/14 05:14:04;;;;;;;;;59.00;45.33;;;;;-0.93;71.77;101307.22;4978153;28;45319;-64
2024/01/14 05:16:30;;;;;;;;;58.67;45.00;;;;;-0.84;71.87;101319.72;4977791;28;45710;-65
2024/01/14 05:18:56;;;;;;;;;65.67;49.00;;;;;-0.78;71.15;101307.19;4977640;28;45335;-64
2024/01/14 05:21:21;;;;;;;;;62.00;43.33;;;;;-0.75;71.63;101310.84;4977689;28;45386;-64
2024/01/14 05:23:47;;;;;;;;;65.00;47.67;;;;;-0.78;71.61;101305.53;4978054;28;45336;-64
2024/01/14 05:26:13;;;;;;;;;66.67;45.00;;;;;-0.77;71.26;101302.16;4977413;28;46459;-64
2024/01/14 05:28:38;;;;;;;;;70.00;51.00;;;;;-0.81;70.71;101294.19;4977955;28;45837;-66
2024/01/14 05:31:04;;;;;;;;;62.67;46.33;;;;;-0.82;71.13;101295.88;4977483;28;45461;-64
2024/01/14 05:33:29;;;;;;;;;71.67;49.00;;;;;-0.72;71.19;101297.28;4977543;28;45438;-65
2024/01/14 05:35:55;;;;;;;;;63.67;47.00;;;;;-0.77;71.56;101286.72;4975954;28;46868;-65
2024/01/14 05:38:20;;;;;;;;;59.67;47.67;;;;;-0.78;71.16;101300.41;4977586;28;45535;-66
2024/01/14 05:40:46;;;;;;;;;69.33;49.33;;;;;-0.84;71.14;101302.59;4975917;28;45518;-65
2024/01/14 05:43:12;;;;;;;;;66.00;51.00;;;;;-0.85;71.25;101290.56;4978001;28;45455;-65
2024/01/14 05:45:37;;;;;;;;;56.00;42.00;;;;;-0.70;71.24;101303.41;4977873;28;46725;-64
2024/01/14 05:48:03;;;;;;;;;63.67;46.67;;;;;-0.63;71.46;101291.78;4978782;28;45793;-64
2024/01/14 05:50:28;;;;;;;;;71.00;50.00;;;;;-0.63;70.14;101284.94;4978974;28;45333;-63
2024/01/14 05:52:54;;;;;;;;;66.00;47.67;;;;;-0.73;70.45;101282.66;4978969;28;45399;-64
2024/01/14 05:55:19;;;;;;;;;64.67;48.67;;;;;-0.72;71.15;101281.84;4978205;28;46306;-65
2024/01/14 05:57:46;;;;;;;;;65.33;45.00;;;;;-0.58;70.08;101293.78;4978060;28;45437;-65
2024/01/14 06:00:13;;;;;;;;;71.33;48.00;;;;;-0.52;70.52;101301.88;4977142;28;45638;-64
2024/01/14 06:02:39;;;;;;;;;63.00;46.00;;;;;-0.45;70.52;101301.41;4977617;28;45694;-64
2024/01/14 06:05:04;;;;;;;;;65.67;43.67;;;;;-0.44;69.66;101287.72;4976718;28;46183;-64
2024/01/14 06:07:30;;;;;;;;;74.33;50.00;;;;;-0.37;70.17;101296.66;4978600;28;45395;-65
2024/01/14 06:09:56;;;;;;;;;66.67;51.00;;;;;-0.40;69.41;101290.44;4978269;28;45558;-64
2024/01/14 06:12:21;;;;;;;;;73.00;49.33;;;;;-0.41;69.87;101296.41;4977400;28;45400;-63
2024/01/14 06:14:47;;;;;;;;;68.00;46.67;;;;;-0.43;69.26;101294.66;4975502;28;46768;-63
2024/01/14 06:17:12;;;;;;;;;72.67;50.33;;;;;-0.44;69.66;101284.25;4976055;28;45849;-65
2024/01/14 06:19:38;;;;;;;;;67.67;48.33;;;;;-0.40;69.89;101283.63;4975452;28;45582;-64
2024/01/14 06:22:04;;;;;;;;;68.67;48.00;;;;;-0.51;69.37;101277.88;4977531;28;46230;-65
2024/01/14 06:24:30;;;;;;;;;66.33;50.33;;;;;-0.46;69.08;101288.44;4976609;28;46102;-64
2024/01/14 06:26:56;;;;;;;;;70.33;49.67;;;;;-0.57;69.72;101275.00;4976436;28;45446;-63
2024/01/14 06:29:28;;;;;;;;;65.67;48.67;;;;;-0.59;70.03;101281.75;4978800;28;45353;-65
2024/01/14 06:31:53;;;;;;;;;70.33;50.00;;;;;-0.51;69.77;101288.19;4977015;28;45534;-65
2024/01/14 06:34:19;;;;;;;;;70.00;48.33;;;;;-0.56;69.32;101270.72;4978135;28;45494;-64
2024/01/14 06:36:45;;;;;;;;;70.00;48.67;;;;;-0.53;69.31;101292.34;4976923;28;45352;-66
2024/01/14 06:39:10;;;;;;;;;68.67;49.67;;;;;-0.67;69.96;101286.44;4976024;28;45385;-65
2024/01/14 06:41:36;;;;;;;;;67.33;47.33;;;;;-0.62;69.77;101283.22;4976799;28;45297;-65
2024/01/14 06:44:02;;;;;;;;;67.33;48.33;;;;;-0.60;70.23;101289.34;4976581;28;45786;-65
2024/01/14 06:46:28;;;;;;;;;68.33;48.33;;;;;-0.85;69.78;101257.13;4976288;28;45548;-65
2024/01/14 06:48:53;;;;;;;;;64.00;45.67;;;;;-0.67;69.42;101295.84;4975994;28;45419;-65
2024/01/14 06:51:19;;;;;;;;;67.00;48.33;;;;;-0.87;70.36;101282.75;4977858;28;45441;-64
2024/01/14 06:53:44;;;;;;;;;72.00;49.67;;;;;-0.86;70.33;101278.47;4975554;28;46617;-64
2024/01/14 06:56:10;;;;;;;;;71.00;52.00;;;;;-0.79;70.05;101292.59;4977987;28;45576;-64
2024/01/14 06:58:36;;;;;;;;;65.00;48.67;;;;;-1.06;70.42;101241.38;4977659;28;45367;-64
2024/01/14 07:01:03;;;;;;;;;66.00;48.00;;;;;-0.76;70.10;101296.22;4974723;28;45557;-65
2024/01/14 07:03:29;;;;;;;;;62.67;47.67;;;;;-0.86;69.62;101281.06;4975678;28;46264;-65
2024/01/14 07:05:55;;;;;;;;;70.33;48.00;;;;;-0.77;69.65;101293.56;4975959;28;45267;-64
2024/01/14 07:08:20;;;;;;;;;65.67;48.00;;;;;-0.73;69.71;101285.22;4991466;28;45506;-64
2024/01/14 07:10:46;;;;;;;;;64.33;46.00;;;;;-0.85;69.67;101270.00;4978855;28;45363;-65
2024/01/14 07:13:12;;;;;;;;;59.00;41.00;;;;;-1.05;69.85;101258.56;4980705;28;45502;-64
2024/01/14 07:15:37;;;;;;;;;66.33;49.33;;;;;-0.91;70.38;101279.91;4979319;28;45894;-65
2024/01/14 07:18:04;;;;;;;;;70.00;48.00;;;;;-0.97;70.41;101277.88;4979975;28;45578;-63
2024/01/14 07:20:30;;;;;;;;;66.00;49.00;;;;;-1.00;70.46;101274.25;4980223;28;45414;-65
2024/01/14 07:22:55;;;;;;;;;72.33;50.00;;;;;-1.02;70.57;101271.59;4978307;28;47546;-64
2024/01/14 07:25:21;;;;;;;;;69.00;45.00;;;;;-1.09;70.60;101267.78;4978275;28;45511;-64
2024/01/14 07:27:47;;;;;;;;;64.33;48.67;;;;;-1.03;70.89;101272.38;4979686;28;45411;-64
2024/01/14 07:30:13;;;;;;;;;67.33;51.33;;;;;-0.96;71.18;101277.06;4981030;28;45324;-63
2024/01/14 07:32:38;;;;;;;;;71.00;47.33;;;;;-0.98;70.55;101264.94;4977947;28;45623;-65
2024/01/14 07:35:04;;;;;;;;;71.00;49.00;;;;;-0.90;69.90;101263.69;4979296;28;45493;-65
2024/01/14 07:37:33;;;;;;;;;58.67;42.33;;;;;-0.94;70.17;101269.47;4978955;28;45366;-65
2024/01/14 07:39:59;;;;;;;;;74.67;50.67;;;;;-1.00;70.42;101259.69;4979954;28;45364;-65
2024/01/14 07:42:25;;;;;;;;;69.67;50.67;;;;;-0.98;70.13;101267.50;4980570;28;46417;-63
2024/01/14 07:44:52;;;;;;;;;65.33;47.33;;;;;-1.26;70.46;101229.03;4979117;28;45503;-65
2024/01/14 07:47:17;;;;;;;;;70.67;48.00;;;;;-1.08;71.08;101272.13;4979778;28;45442;-65
2024/01/14 07:49:48;;;;;;;;;69.00;47.33;;;;;-1.09;71.34;101265.22;4980440;28;45389;-64
2024/01/14 07:52:14;;;;;;;;;72.33;48.00;;;;;-0.99;71.44;101276.91;4966549;28;45578;-64
2024/01/14 07:54:40;;;;;;;;;61.00;43.67;;;;;-0.92;71.21;101276.47;4978997;28;45704;-64
2024/01/14 07:57:05;;;;;;;;;67.00;47.00;;;;;-0.88;71.02;101277.50;4978540;28;45501;-63
2024/01/14 07:59:33;;;;;;;;;64.00;46.67;;;;;-0.91;70.11;101270.50;4978765;28;45279;-66
2024/01/14 08:01:59;;;;;;;;;62.67;48.33;;;;;-0.83;69.61;101276.09;4979936;28;45482;-65
2024/01/14 08:04:24;;;;;;;;;73.67;51.67;;;;;-0.95;70.94;101284.00;4979826;28;45451;-66
2024/01/14 08:06:50;;;;;;;;;70.33;49.33;;;;;-0.97;70.75;101283.03;4979032;28;45550;-65
2024/01/14 08:09:15;;;;;;;;;61.67;44.00;;;;;-1.00;70.26;101282.84;4979506;28;45411;-66
2024/01/14 08:11:41;;;;;;;;;69.00;46.67;;;;;-1.02;70.92;101284.47;4978698;28;45616;-64
2024/01/14 08:14:07;;;;;;;;;66.33;48.33;;;;;-0.90;70.95;101287.72;4977292;28;45612;-65
2024/01/14 08:16:32;;;;;;;;;66.00;48.00;;;;;-1.03;70.57;101261.22;4977523;28;45327;-65
2024/01/14 08:18:58;;;;;;;;;67.67;48.33;;;;;-1.09;70.59;101262.66;4978841;28;45478;-64
2024/01/14 08:21:24;;;;;;;;;62.00;45.67;;;;;-0.98;70.36;101275.22;4978828;28;45474;-64
2024/01/14 08:23:49;;;;;;;;;64.00;48.67;;;;;-0.96;70.67;101279.66;4979089;28;45422;-65
2024/01/14 08:26:15;;;;;;;;;65.33;48.33;;;;;-1.03;70.68;101279.22;4977343;28;45350;-65
2024/01/14 08:28:41;;;;;;;;;67.67;48.33;;;;;-1.56;70.80;101213.66;4977371;28;45495;-62
2024/01/14 08:31:06;;;;;;;;;74.67;50.00;;;;;-1.17;71.05;101288.69;4978158;28;46249;-66
2024/01/14 08:33:32;;;;;;;;;68.00;49.33;;;;;-1.22;70.79;101285.84;4979021;28;45826;-65
2024/01/14 08:35:57;;;;;;;;;62.33;43.67;;;;;-1.19;71.44;101293.75;4979811;28;45459;-64
2024/01/14 08:38:24;;;;;;;;;62.33;50.00;;;;;-1.21;71.30;101271.31;4978791;28;45345;-64
2024/01/14 08:40:51;;;;;;;;;61.33;46.67;;;;;-1.12;71.50;101280.44;4979039;28;45389;-64
2024/01/14 08:43:16;;;;;;;;;68.33;47.00;;;;;-1.12;71.01;101289.84;4978241;28;45525;-64
2024/01/14 08:45:42;;;;;;;;;72.00;45.67;;;;;-1.09;71.26;101279.75;4978663;28;45476;-64
2024/01/14 08:48:10;;;;;;;;;63.33;48.00;;;;;-1.01;70.65;101275.06;4978643;28;45518;-65
2024/01/14 08:50:36;;;;;;;;;68.67;46.33;;;;;-1.01;71.44;101275.06;4977240;28;46948;-63
2024/01/14 08:53:04;;;;;;;;;63.67;46.00;;;;;-1.05;71.01;101262.81;4978448;28;45485;-66
2024/01/14 08:55:31;;;;;;;;;62.00;46.00;;;;;-1.03;70.84;101271.50;4975628;28;45428;-65
2024/01/14 08:57:57;;;;;;;;;60.67;46.67;;;;;-1.04;72.04;101278.34;4969806;28;45608;-65
2024/01/14 09:00:22;;;;;;;;;71.67;49.00;;;;;-1.11;71.21;101260.78;4979084;28;45325;-65
2024/01/14 09:02:48;;;;;;;;;63.00;46.33;;;;;-1.08;71.96;101268.66;4977685;28;45527;-64
2024/01/14 09:05:13;;;;;;;;;64.33;46.00;;;;;-1.16;71.77;101259.66;4978338;28;45554;-64
2024/01/14 09:07:39;;;;;;;;;71.67;48.67;;;;;-1.32;72.37;101263.00;4978746;28;45526;-64
2024/01/14 09:10:05;;;;;;;;;67.67;46.33;;;;;-1.34;72.25;101255.19;4979467;28;46611;-64
2024/01/14 09:12:30;;;;;;;;;70.67;49.00;;;;;-1.41;72.63;101250.50;4977373;28;45485;-64
2024/01/14 09:14:59;;;;;;;;;58.67;43.00;;;;;-1.41;72.50;101245.34;4978209;28;45462;-62
2024/01/14 09:17:25;;;;;;;;;60.00;46.67;;;;;-1.45;72.39;101216.81;4978639;28;45447;-65
2024/01/14 09:19:51;;;;;;;;;61.00;43.33;;;;;-1.30;72.78;101239.16;4977697;28;46001;-67
2024/01/14 09:22:17;;;;;;;;;65.00;51.00;;;;;-1.28;71.85;101228.97;4977564;28;45410;-64
2024/01/14 09:24:45;;;;;;;;;63.33;44.67;;;;;-1.29;72.54;101229.75;4976607;28;45455;-64
2024/01/14 09:27:13;;;;;;;;;70.33;47.33;;;;;-1.34;72.79;101221.78;4978009;28;45354;-66
2024/01/14 09:29:39;;;;;;;;;65.00;47.00;;;;;-1.22;71.79;101231.00;4979002;28;45517;-65
2024/01/14 09:32:05;;;;;;;;;66.67;48.00;;;;;-1.27;72.31;101229.84;4978376;28;45426;-65
2024/01/14 09:34:30;;;;;;;;;64.00;45.67;;;;;-1.35;72.08;101226.84;4976905;28;45697;-65
2024/01/14 09:36:56;;;;;;;;;65.33;47.67;;;;;-1.30;72.14;101228.88;4977801;28;45609;-65
2024/01/14 09:39:22;;;;;;;;;67.00;46.33;;;;;-1.23;72.25;101234.34;4977609;28;45985;-65
2024/01/14 09:42:18;;;;;;;;;62.67;48.00;;;;;-1.22;72.28;101236.16;4977250;28;45474;-66
2024/01/14 09:44:46;;;;;;;;;66.33;45.33;;;;;-1.15;72.61;101243.41;4977407;28;45487;-64
2024/01/14 09:47:14;;;;;;;;;64.67;45.67;;;;;-1.18;71.40;101220.09;4978485;28;45722;-64
2024/01/14 09:49:41;;;;;;;;;61.00;47.00;;;;;-1.10;71.55;101224.88;4977422;28;46080;-64
2024/01/14 09:52:09;;;;;;;;;63.00;45.00;;;;;-1.03;71.91;101225.22;4977167;28;45289;-64
2024/01/14 09:54:35;;;;;;;;;69.33;46.00;;;;;-1.08;70.78;101207.84;4975706;28;45425;-66
2024/01/14 09:57:11;;;;;;;;;60.33;43.33;;;;;-0.98;70.75;101221.22;4975897;28;45431;-64
2024/01/14 09:59:37;;;;;;;;;63.00;46.00;;;;;-0.93;70.68;101223.25;4975323;28;45651;-64
2024/01/14 10:02:04;;;;;;;;;63.00;44.67;;;;;-0.93;71.27;101207.81;4975316;28;45518;-64
2024/01/14 10:04:29;;;;;;;;;68.33;47.67;;;;;-0.89;70.46;101211.47;4976761;28;45470;-63
2024/01/14 10:06:56;;;;;;;;;65.00;44.67;;;;;-0.86;70.36;101209.03;4975981;28;46377;-65
2024/01/14 10:09:23;;;;;;;;;63.67;42.67;;;;;-0.73;70.38;101218.34;4992160;28;46309;-64
2024/01/14 10:11:49;;;;;;;;;65.33;47.33;;;;;-0.62;69.80;101217.22;4977074;28;45412;-65
2024/01/14 10:14:16;;;;;;;;;66.67;44.67;;;;;-0.57;69.91;101202.03;4975557;28;45325;-65
2024/01/14 10:16:41;;;;;;;;;66.33;48.00;;;;;-0.62;69.91;101198.34;4977427;28;45600;-64
2024/01/14 10:19:07;;;;;;;;;67.00;48.33;;;;;-0.43;69.19;101209.72;4976590;28;46099;-66
2024/01/14 10:21:32;;;;;;;;;71.00;45.67;;;;;-0.39;70.07;101208.19;4977260;28;45403;-67
2024/01/14 10:24:00;;;;;;;;;68.67;50.00;;;;;-0.60;69.38;101192.47;4977757;28;45515;-67
2024/01/14 10:26:25;;;;;;;;;71.33;46.33;;;;;-0.59;69.46;101185.63;4978633;28;45459;-68
2024/01/14 10:28:51;;;;;;;;;69.67;49.67;;;;;-0.53;69.31;101198.84;4978569;28;45263;-67
2024/01/14 10:31:17;;;;;;;;;71.00;51.33;;;;;-0.51;69.68;101200.69;4977221;28;45260;-64
2024/01/14 10:33:45;;;;;;;;;75.33;51.33;;;;;-0.51;69.35;101197.25;4975506;28;45447;-66
2024/01/14 10:36:10;;;;;;;;;70.33;52.00;;;;;-0.55;69.23;101180.72;4977178;28;45679;-66
2024/01/14 10:38:36;;;;;;;;;66.33;48.33;;;;;-0.52;69.53;101170.63;4978259;28;45931;-67
2024/01/14 10:41:03;;;;;;;;;63.67;48.00;;;;;-0.33;69.46;101172.50;4977215;28;45493;-65
2024/01/14 10:43:29;;;;;;;;;73.33;50.67;;;;;-0.12;69.47;101192.41;4977921;28;45469;-66
2024/01/14 10:45:57;;;;;;;;;75.00;49.33;;;;;0.02;68.49;101177.69;4980447;28;45426;-64
2024/01/14 10:48:27;;;;;;;;;79.00;55.00;;;;;0.12;68.45;101172.19;4980085;28;46232;-66
2024/01/14 10:50:57;;;;;;;;;77.00;53.00;;;;;0.26;68.21;101175.47;4978870;28;45376;-65
2024/01/14 10:53:37;;;;;;;;;75.00;54.00;;;;;0.38;68.20;101170.94;4980077;28;45384;-66
2024/01/14 10:56:05;;;;;;;;;83.67;58.00;;;;;0.44;67.48;101167.81;4980304;28;45466;-67
2024/01/14 10:58:32;;;;;;;;;78.33;53.33;;;;;0.50;67.44;101156.13;4979668;28;45619;-65
2024/01/14 11:01:01;;;;;;;;;86.33;56.00;;;;;0.55;66.15;101148.59;4979965;28;45340;-66
2024/01/14 11:03:28;;;;;;;;;75.67;53.33;;;;;0.58;67.04;101138.44;4980459;28;45521;-68
2024/01/14 11:05:54;;;;;;;;;77.33;54.00;;;;;0.57;66.42;101128.91;4978776;28;45481;-67